sensor_id;sensor_type;location;lat;lon;timestamp;P1;durP1;ratioP1;P2;durP2;ratioP2
79644;SDS011;69117;47.148;18.954;2023-07-31T00:01:20;2.25;;;1.55;;
79644;SDS011;69117;47.148;18.954;2023-07-31T00:04:21;2.55;;;2.08;;
79644;SDS011;69117;47.148;18.954;2023-07-31T00:07:23;3.17;;;1.90;;
79644;SDS011;69117;47.148;18.954;2023-07-31T00:10:25;2.95;;;2.15;;
79644;SDS011;69117;47.148;18.954;2023-07-31T00:13:26;2.15;;;1.88;;
79644;SDS011;69117;47.148;18.954;2023-07-31T00:16:28;3.08;;;2.17;;
79644;SDS011;69117;47.148;18.954;2023-07-31T00:19:30;3.97;;;2.45;;
79644;SDS011;69117;47.148;18.954;2023-07-31T00:22:31;3.38;;;2.15;;
79644;SDS011;69117;47.148;18.954;2023-07-31T00:25:33;2.30;;;1.85;;
79644;SDS011;69117;47.148;18.954;2023-07-31T00:28:35;3.28;;;1.88;;
79644;SDS011;69117;47.148;18.954;2023-07-31T00:31:36;2.40;;;2.17;;
79644;SDS011;69117;47.148;18.954;2023-07-31T00:34:38;3.53;;;2.30;;
79644;SDS011;69117;47.148;18.954;2023-07-31T00:37:40;3.75;;;2.10;;
79644;SDS011;69117;47.148;18.954;2023-07-31T00:40:41;3.17;;;2.22;;
79644;SDS011;69117;47.148;18.954;2023-07-31T00:43:43;3.53;;;2.72;;
79644;SDS011;69117;47.148;18.954;2023-07-31T00:46:45;3.60;;;2.20;;
79644;SDS011;69117;47.148;18.954;2023-07-31T00:49:46;3.38;;;2.45;;
79644;SDS011;69117;47.148;18.954;2023-07-31T00:52:49;1.92;;;1.77;;
79644;SDS011;69117;47.148;18.954;2023-07-31T00:55:51;3.45;;;2.80;;
79644;SDS011;69117;47.148;18.954;2023-07-31T00:58:53;3.78;;;3.15;;
79644;SDS011;69117;47.148;18.954;2023-07-31T01:01:55;4.65;;;2.90;;
79644;SDS011;69117;47.148;18.954;2023-07-31T01:04:56;3.45;;;2.88;;
79644;SDS011;69117;47.148;18.954;2023-07-31T01:08:04;2.88;;;2.33;;
79644;SDS011;69117;47.148;18.954;2023-07-31T01:11:25;3.10;;;2.22;;
79644;SDS011;69117;47.148;18.954;2023-07-31T01:14:29;3.72;;;3.17;;
79644;SDS011;69117;47.148;18.954;2023-07-31T01:17:31;3.53;;;2.55;;
79644;SDS011;69117;47.148;18.954;2023-07-31T01:20:33;7.07;;;2.85;;
79644;SDS011;69117;47.148;18.954;2023-07-31T01:26:56;3.17;;;2.42;;
79644;SDS011;69117;47.148;18.954;2023-07-31T01:33:12;3.28;;;2.53;;
79644;SDS011;69117;47.148;18.954;2023-07-31T01:36:15;3.47;;;2.15;;
79644;SDS011;69117;47.148;18.954;2023-07-31T01:39:17;2.75;;;2.35;;
79644;SDS011;69117;47.148;18.954;2023-07-31T01:42:21;4.10;;;2.65;;
79644;SDS011;69117;47.148;18.954;2023-07-31T01:45:23;4.63;;;2.38;;
79644;SDS011;69117;47.148;18.954;2023-07-31T01:48:25;3.25;;;2.28;;
79644;SDS011;69117;47.148;18.954;2023-07-31T01:51:26;3.08;;;2.15;;
79644;SDS011;69117;47.148;18.954;2023-07-31T01:54:28;3.45;;;2.78;;
79644;SDS011;69117;47.148;18.954;2023-07-31T01:57:30;2.85;;;2.13;;
79644;SDS011;69117;47.148;18.954;2023-07-31T02:00:31;3.30;;;2.63;;
79644;SDS011;69117;47.148;18.954;2023-07-31T02:03:33;5.75;;;2.15;;
79644;SDS011;69117;47.148;18.954;2023-07-31T02:06:35;3.83;;;2.42;;
79644;SDS011;69117;47.148;18.954;2023-07-31T02:09:37;3.78;;;2.38;;
79644;SDS011;69117;47.148;18.954;2023-07-31T02:12:39;3.63;;;2.25;;
79644;SDS011;69117;47.148;18.954;2023-07-31T02:15:40;3.72;;;2.60;;
79644;SDS011;69117;47.148;18.954;2023-07-31T02:18:42;5.45;;;3.10;;
79644;SDS011;69117;47.148;18.954;2023-07-31T02:21:44;3.72;;;2.58;;
79644;SDS011;69117;47.148;18.954;2023-07-31T02:24:45;4.00;;;2.83;;
79644;SDS011;69117;47.148;18.954;2023-07-31T02:27:47;4.32;;;3.30;;
79644;SDS011;69117;47.148;18.954;2023-07-31T02:30:50;3.47;;;2.45;;
79644;SDS011;69117;47.148;18.954;2023-07-31T02:33:52;4.97;;;2.85;;
79644;SDS011;69117;47.148;18.954;2023-07-31T02:36:54;4.85;;;3.17;;
79644;SDS011;69117;47.148;18.954;2023-07-31T02:39:55;5.10;;;2.95;;
79644;SDS011;69117;47.148;18.954;2023-07-31T02:42:57;5.15;;;2.88;;
79644;SDS011;69117;47.148;18.954;2023-07-31T02:45:59;4.15;;;2.83;;
79644;SDS011;69117;47.148;18.954;2023-07-31T02:49:01;3.42;;;2.42;;
79644;SDS011;69117;47.148;18.954;2023-07-31T02:52:02;3.72;;;2.65;;
79644;SDS011;69117;47.148;18.954;2023-07-31T02:55:05;3.53;;;2.13;;
79644;SDS011;69117;47.148;18.954;2023-07-31T02:58:07;3.33;;;2.30;;
79644;SDS011;69117;47.148;18.954;2023-07-31T03:01:09;4.30;;;2.00;;
79644;SDS011;69117;47.148;18.954;2023-07-31T03:04:11;2.90;;;2.15;;
79644;SDS011;69117;47.148;18.954;2023-07-31T03:07:12;2.65;;;1.88;;
79644;SDS011;69117;47.148;18.954;2023-07-31T03:10:14;2.47;;;1.58;;
79644;SDS011;69117;47.148;18.954;2023-07-31T03:13:16;1.75;;;1.23;;
79644;SDS011;69117;47.148;18.954;2023-07-31T03:16:17;3.22;;;1.25;;
79644;SDS011;69117;47.148;18.954;2023-07-31T03:19:19;4.68;;;1.70;;
79644;SDS011;69117;47.148;18.954;2023-07-31T03:22:21;2.33;;;1.20;;
79644;SDS011;69117;47.148;18.954;2023-07-31T03:25:23;4.60;;;1.30;;
79644;SDS011;69117;47.148;18.954;2023-07-31T03:28:24;1.50;;;1.20;;
79644;SDS011;69117;47.148;18.954;2023-07-31T03:31:26;3.30;;;1.65;;
79644;SDS011;69117;47.148;18.954;2023-07-31T03:34:28;1.90;;;1.33;;
79644;SDS011;69117;47.148;18.954;2023-07-31T03:37:30;1.00;;;0.70;;
79644;SDS011;69117;47.148;18.954;2023-07-31T03:40:32;2.33;;;1.48;;
79644;SDS011;69117;47.148;18.954;2023-07-31T03:43:33;1.02;;;0.93;;
79644;SDS011;69117;47.148;18.954;2023-07-31T03:46:35;2.72;;;0.88;;
79644;SDS011;69117;47.148;18.954;2023-07-31T03:49:38;1.40;;;1.02;;
79644;SDS011;69117;47.148;18.954;2023-07-31T03:52:40;1.75;;;1.20;;
79644;SDS011;69117;47.148;18.954;2023-07-31T03:55:42;2.90;;;0.98;;
79644;SDS011;69117;47.148;18.954;2023-07-31T03:58:44;1.20;;;0.70;;
79644;SDS011;69117;47.148;18.954;2023-07-31T04:01:46;1.13;;;0.63;;
79644;SDS011;69117;47.148;18.954;2023-07-31T04:04:47;2.25;;;1.17;;
79644;SDS011;69117;47.148;18.954;2023-07-31T04:07:49;1.20;;;0.82;;
79644;SDS011;69117;47.148;18.954;2023-07-31T04:10:51;0.90;;;0.57;;
79644;SDS011;69117;47.148;18.954;2023-07-31T04:13:52;1.10;;;0.95;;
79644;SDS011;69117;47.148;18.954;2023-07-31T04:16:54;1.63;;;0.95;;
79644;SDS011;69117;47.148;18.954;2023-07-31T04:19:55;1.17;;;0.90;;
79644;SDS011;69117;47.148;18.954;2023-07-31T04:22:57;1.60;;;1.05;;
79644;SDS011;69117;47.148;18.954;2023-07-31T04:25:59;3.83;;;1.10;;
79644;SDS011;69117;47.148;18.954;2023-07-31T04:29:01;1.58;;;1.38;;
79644;SDS011;69117;47.148;18.954;2023-07-31T04:32:02;2.22;;;1.00;;
79644;SDS011;69117;47.148;18.954;2023-07-31T04:35:05;3.17;;;1.10;;
79644;SDS011;69117;47.148;18.954;2023-07-31T04:38:06;1.25;;;0.93;;
79644;SDS011;69117;47.148;18.954;2023-07-31T04:41:08;1.05;;;0.65;;
79644;SDS011;69117;47.148;18.954;2023-07-31T04:44:10;2.22;;;1.10;;
79644;SDS011;69117;47.148;18.954;2023-07-31T04:47:12;1.95;;;1.52;;
79644;SDS011;69117;47.148;18.954;2023-07-31T04:50:14;3.25;;;0.93;;
79644;SDS011;69117;47.148;18.954;2023-07-31T04:53:16;1.65;;;0.73;;
79644;SDS011;69117;47.148;18.954;2023-07-31T04:56:17;1.58;;;1.05;;
79644;SDS011;69117;47.148;18.954;2023-07-31T04:59:19;1.05;;;0.73;;
79644;SDS011;69117;47.148;18.954;2023-07-31T05:02:21;0.90;;;0.68;;
79644;SDS011;69117;47.148;18.954;2023-07-31T05:05:22;1.25;;;0.90;;
79644;SDS011;69117;47.148;18.954;2023-07-31T05:08:24;0.75;;;0.60;;
79644;SDS011;69117;47.148;18.954;2023-07-31T05:11:26;1.73;;;0.63;;
79644;SDS011;69117;47.148;18.954;2023-07-31T05:14:28;1.05;;;0.32;;
79644;SDS011;69117;47.148;18.954;2023-07-31T05:17:29;1.80;;;0.93;;
79644;SDS011;69117;47.148;18.954;2023-07-31T05:20:31;1.05;;;0.63;;
79644;SDS011;69117;47.148;18.954;2023-07-31T05:23:32;0.80;;;0.47;;
79644;SDS011;69117;47.148;18.954;2023-07-31T05:26:34;2.80;;;0.85;;
79644;SDS011;69117;47.148;18.954;2023-07-31T05:29:36;5.35;;;0.82;;
79644;SDS011;69117;47.148;18.954;2023-07-31T05:32:37;1.17;;;0.60;;
79644;SDS011;69117;47.148;18.954;2023-07-31T05:35:39;0.98;;;0.65;;
79644;SDS011;69117;47.148;18.954;2023-07-31T05:38:42;1.17;;;0.57;;
79644;SDS011;69117;47.148;18.954;2023-07-31T05:41:45;1.77;;;1.00;;
79644;SDS011;69117;47.148;18.954;2023-07-31T05:44:47;1.40;;;0.95;;
79644;SDS011;69117;47.148;18.954;2023-07-31T05:47:48;0.82;;;0.60;;
79644;SDS011;69117;47.148;18.954;2023-07-31T05:50:50;0.90;;;0.63;;
79644;SDS011;69117;47.148;18.954;2023-07-31T05:53:52;1.58;;;0.50;;
79644;SDS011;69117;47.148;18.954;2023-07-31T05:56:53;0.93;;;0.77;;
79644;SDS011;69117;47.148;18.954;2023-07-31T05:59:55;0.70;;;0.43;;
79644;SDS011;69117;47.148;18.954;2023-07-31T06:02:57;0.93;;;0.45;;
79644;SDS011;69117;47.148;18.954;2023-07-31T06:05:58;3.30;;;0.60;;
79644;SDS011;69117;47.148;18.954;2023-07-31T06:09:00;2.35;;;0.57;;
79644;SDS011;69117;47.148;18.954;2023-07-31T06:12:02;3.80;;;0.47;;
79644;SDS011;69117;47.148;18.954;2023-07-31T06:15:04;1.08;;;0.50;;
79644;SDS011;69117;47.148;18.954;2023-07-31T06:18:07;1.08;;;0.52;;
79644;SDS011;69117;47.148;18.954;2023-07-31T06:21:09;1.58;;;0.55;;
79644;SDS011;69117;47.148;18.954;2023-07-31T06:24:11;1.13;;;0.65;;
79644;SDS011;69117;47.148;18.954;2023-07-31T06:27:13;0.82;;;0.52;;
79644;SDS011;69117;47.148;18.954;2023-07-31T06:30:15;2.75;;;0.43;;
79644;SDS011;69117;47.148;18.954;2023-07-31T06:33:17;1.73;;;1.27;;
79644;SDS011;69117;47.148;18.954;2023-07-31T06:36:18;3.08;;;0.52;;
79644;SDS011;69117;47.148;18.954;2023-07-31T06:39:20;1.08;;;0.70;;
79644;SDS011;69117;47.148;18.954;2023-07-31T06:42:22;0.63;;;0.43;;
79644;SDS011;69117;47.148;18.954;2023-07-31T06:45:23;0.77;;;0.35;;
79644;SDS011;69117;47.148;18.954;2023-07-31T06:48:25;0.93;;;0.63;;
79644;SDS011;69117;47.148;18.954;2023-07-31T06:51:27;1.33;;;0.43;;
79644;SDS011;69117;47.148;18.954;2023-07-31T06:54:28;1.50;;;0.77;;
79644;SDS011;69117;47.148;18.954;2023-07-31T06:57:30;1.00;;;0.52;;
79644;SDS011;69117;47.148;18.954;2023-07-31T07:00:32;2.17;;;0.73;;
79644;SDS011;69117;47.148;18.954;2023-07-31T07:03:33;1.25;;;0.95;;
79644;SDS011;69117;47.148;18.954;2023-07-31T07:06:35;3.08;;;0.55;;
79644;SDS011;69117;47.148;18.954;2023-07-31T07:09:38;1.13;;;1.02;;
79644;SDS011;69117;47.148;18.954;2023-07-31T07:12:40;1.40;;;0.63;;
79644;SDS011;69117;47.148;18.954;2023-07-31T07:15:41;1.95;;;0.70;;
79644;SDS011;69117;47.148;18.954;2023-07-31T07:18:43;0.88;;;0.68;;
79644;SDS011;69117;47.148;18.954;2023-07-31T07:22:04;1.08;;;0.82;;
79644;SDS011;69117;47.148;18.954;2023-07-31T07:25:06;1.65;;;0.98;;
79644;SDS011;69117;47.148;18.954;2023-07-31T07:28:09;4.53;;;0.88;;
79644;SDS011;69117;47.148;18.954;2023-07-31T07:31:11;1.05;;;0.45;;
79644;SDS011;69117;47.148;18.954;2023-07-31T07:34:13;0.70;;;0.20;;
79644;SDS011;69117;47.148;18.954;2023-07-31T07:37:14;1.15;;;0.55;;
79644;SDS011;69117;47.148;18.954;2023-07-31T07:40:16;0.60;;;0.60;;
79644;SDS011;69117;47.148;18.954;2023-07-31T07:43:18;1.33;;;0.75;;
79644;SDS011;69117;47.148;18.954;2023-07-31T07:46:19;1.92;;;0.82;;
79644;SDS011;69117;47.148;18.954;2023-07-31T07:49:21;1.10;;;0.57;;
79644;SDS011;69117;47.148;18.954;2023-07-31T07:52:25;1.23;;;0.55;;
79644;SDS011;69117;47.148;18.954;2023-07-31T07:55:27;1.30;;;0.43;;
79644;SDS011;69117;47.148;18.954;2023-07-31T07:58:29;1.45;;;0.60;;
79644;SDS011;69117;47.148;18.954;2023-07-31T08:01:30;2.00;;;0.68;;
79644;SDS011;69117;47.148;18.954;2023-07-31T08:04:32;1.83;;;0.52;;
79644;SDS011;69117;47.148;18.954;2023-07-31T08:07:34;3.50;;;0.90;;
79644;SDS011;69117;47.148;18.954;2023-07-31T08:10:36;0.90;;;0.55;;
79644;SDS011;69117;47.148;18.954;2023-07-31T08:13:37;0.90;;;0.45;;
79644;SDS011;69117;47.148;18.954;2023-07-31T08:16:39;1.40;;;0.90;;
79644;SDS011;69117;47.148;18.954;2023-07-31T08:19:41;1.05;;;0.57;;
79644;SDS011;69117;47.148;18.954;2023-07-31T08:22:43;0.63;;;0.63;;
79644;SDS011;69117;47.148;18.954;2023-07-31T08:25:45;4.25;;;0.73;;
79644;SDS011;69117;47.148;18.954;2023-07-31T08:28:47;0.88;;;0.50;;
79644;SDS011;69117;47.148;18.954;2023-07-31T08:31:49;1.10;;;0.50;;
79644;SDS011;69117;47.148;18.954;2023-07-31T08:34:51;0.57;;;0.32;;
79644;SDS011;69117;47.148;18.954;2023-07-31T08:37:52;1.90;;;0.40;;
79644;SDS011;69117;47.148;18.954;2023-07-31T08:40:54;1.70;;;1.02;;
79644;SDS011;69117;47.148;18.954;2023-07-31T08:43:56;1.20;;;1.08;;
79644;SDS011;69117;47.148;18.954;2023-07-31T08:46:59;0.95;;;0.80;;
79644;SDS011;69117;47.148;18.954;2023-07-31T08:50:01;1.70;;;0.80;;
79644;SDS011;69117;47.148;18.954;2023-07-31T08:53:03;2.28;;;0.70;;
79644;SDS011;69117;47.148;18.954;2023-07-31T08:56:05;2.28;;;0.50;;
79644;SDS011;69117;47.148;18.954;2023-07-31T08:59:07;2.40;;;1.02;;
79644;SDS011;69117;47.148;18.954;2023-07-31T09:02:10;1.00;;;0.60;;
79644;SDS011;69117;47.148;18.954;2023-07-31T09:05:14;2.67;;;0.40;;
79644;SDS011;69117;47.148;18.954;2023-07-31T09:08:18;1.23;;;0.50;;
79644;SDS011;69117;47.148;18.954;2023-07-31T09:11:22;3.13;;;0.98;;
79644;SDS011;69117;47.148;18.954;2023-07-31T09:14:25;0.65;;;0.60;;
79644;SDS011;69117;47.148;18.954;2023-07-31T09:20:33;1.17;;;0.82;;
79644;SDS011;69117;47.148;18.954;2023-07-31T09:23:43;0.77;;;0.68;;
79644;SDS011;69117;47.148;18.954;2023-07-31T09:26:51;0.45;;;0.30;;
79644;SDS011;69117;47.148;18.954;2023-07-31T09:29:58;2.72;;;1.17;;
79644;SDS011;69117;47.148;18.954;2023-07-31T09:33:03;0.57;;;0.40;;
79644;SDS011;69117;47.148;18.954;2023-07-31T09:36:07;0.70;;;0.40;;
79644;SDS011;69117;47.148;18.954;2023-07-31T09:39:10;1.58;;;0.55;;
79644;SDS011;69117;47.148;18.954;2023-07-31T09:42:12;2.03;;;0.47;;
79644;SDS011;69117;47.148;18.954;2023-07-31T09:45:14;0.93;;;0.50;;
79644;SDS011;69117;47.148;18.954;2023-07-31T09:48:22;3.67;;;0.75;;
79644;SDS011;69117;47.148;18.954;2023-07-31T09:51:27;3.00;;;0.50;;
79644;SDS011;69117;47.148;18.954;2023-07-31T09:54:28;1.42;;;0.57;;
79644;SDS011;69117;47.148;18.954;2023-07-31T09:57:30;2.22;;;0.65;;
79644;SDS011;69117;47.148;18.954;2023-07-31T10:00:34;0.50;;;0.47;;
79644;SDS011;69117;47.148;18.954;2023-07-31T10:03:36;0.57;;;0.57;;
79644;SDS011;69117;47.148;18.954;2023-07-31T10:06:40;0.88;;;0.88;;
79644;SDS011;69117;47.148;18.954;2023-07-31T10:09:44;0.90;;;0.40;;
79644;SDS011;69117;47.148;18.954;2023-07-31T10:12:49;2.33;;;0.60;;
79644;SDS011;69117;47.148;18.954;2023-07-31T10:15:51;0.73;;;0.35;;
79644;SDS011;69117;47.148;18.954;2023-07-31T10:18:53;1.58;;;0.50;;
79644;SDS011;69117;47.148;18.954;2023-07-31T10:21:56;0.93;;;0.35;;
79644;SDS011;69117;47.148;18.954;2023-07-31T10:25:00;1.70;;;0.50;;
79644;SDS011;69117;47.148;18.954;2023-07-31T10:28:02;6.35;;;0.80;;
79644;SDS011;69117;47.148;18.954;2023-07-31T10:31:04;1.48;;;0.52;;
79644;SDS011;69117;47.148;18.954;2023-07-31T10:34:07;2.03;;;0.50;;
79644;SDS011;69117;47.148;18.954;2023-07-31T10:40:27;2.33;;;1.17;;
79644;SDS011;69117;47.148;18.954;2023-07-31T10:43:29;1.50;;;0.50;;
79644;SDS011;69117;47.148;18.954;2023-07-31T10:46:32;3.05;;;0.73;;
79644;SDS011;69117;47.148;18.954;2023-07-31T10:49:34;0.95;;;0.65;;
79644;SDS011;69117;47.148;18.954;2023-07-31T10:52:36;1.80;;;0.40;;
79644;SDS011;69117;47.148;18.954;2023-07-31T10:55:41;2.05;;;0.95;;
79644;SDS011;69117;47.148;18.954;2023-07-31T10:58:45;2.67;;;0.40;;
79644;SDS011;69117;47.148;18.954;2023-07-31T11:01:50;1.30;;;0.70;;
79644;SDS011;69117;47.148;18.954;2023-07-31T11:05:08;2.30;;;0.63;;
79644;SDS011;69117;47.148;18.954;2023-07-31T11:08:15;1.15;;;0.50;;
79644;SDS011;69117;47.148;18.954;2023-07-31T11:11:19;3.20;;;1.27;;
79644;SDS011;69117;47.148;18.954;2023-07-31T11:14:21;1.33;;;0.52;;
79644;SDS011;69117;47.148;18.954;2023-07-31T11:17:24;0.60;;;0.45;;
79644;SDS011;69117;47.148;18.954;2023-07-31T11:20:28;1.70;;;0.68;;
79644;SDS011;69117;47.148;18.954;2023-07-31T11:23:31;0.85;;;0.45;;
79644;SDS011;69117;47.148;18.954;2023-07-31T11:26:33;1.30;;;0.93;;
79644;SDS011;69117;47.148;18.954;2023-07-31T11:29:35;1.13;;;0.70;;
79644;SDS011;69117;47.148;18.954;2023-07-31T11:32:37;0.90;;;0.63;;
79644;SDS011;69117;47.148;18.954;2023-07-31T11:35:43;2.17;;;1.27;;
79644;SDS011;69117;47.148;18.954;2023-07-31T11:38:46;1.23;;;0.75;;
79644;SDS011;69117;47.148;18.954;2023-07-31T11:41:49;0.98;;;0.57;;
79644;SDS011;69117;47.148;18.954;2023-07-31T11:44:50;2.15;;;0.40;;
79644;SDS011;69117;47.148;18.954;2023-07-31T11:47:52;0.80;;;0.80;;
79644;SDS011;69117;47.148;18.954;2023-07-31T11:50:59;2.42;;;0.52;;
79644;SDS011;69117;47.148;18.954;2023-07-31T11:54:02;1.35;;;0.68;;
79644;SDS011;69117;47.148;18.954;2023-07-31T11:57:04;1.05;;;0.68;;
79644;SDS011;69117;47.148;18.954;2023-07-31T12:00:07;1.35;;;0.80;;
79644;SDS011;69117;47.148;18.954;2023-07-31T12:03:12;1.50;;;0.73;;
79644;SDS011;69117;47.148;18.954;2023-07-31T12:06:14;1.65;;;0.73;;
79644;SDS011;69117;47.148;18.954;2023-07-31T12:09:15;1.17;;;0.52;;
79644;SDS011;69117;47.148;18.954;2023-07-31T12:12:20;0.98;;;0.93;;
79644;SDS011;69117;47.148;18.954;2023-07-31T12:15:28;1.17;;;1.08;;
79644;SDS011;69117;47.148;18.954;2023-07-31T12:18:34;1.20;;;1.10;;
79644;SDS011;69117;47.148;18.954;2023-07-31T12:21:37;5.18;;;1.08;;
79644;SDS011;69117;47.148;18.954;2023-07-31T12:24:43;2.42;;;0.77;;
79644;SDS011;69117;47.148;18.954;2023-07-31T12:27:45;0.95;;;0.50;;
79644;SDS011;69117;47.148;18.954;2023-07-31T12:30:47;1.75;;;0.82;;
79644;SDS011;69117;47.148;18.954;2023-07-31T12:33:50;0.57;;;0.57;;
79644;SDS011;69117;47.148;18.954;2023-07-31T12:36:53;1.67;;;0.63;;
79644;SDS011;69117;47.148;18.954;2023-07-31T12:39:55;2.33;;;0.50;;
79644;SDS011;69117;47.148;18.954;2023-07-31T12:43:01;1.27;;;0.80;;
79644;SDS011;69117;47.148;18.954;2023-07-31T12:46:05;0.90;;;0.52;;
79644;SDS011;69117;47.148;18.954;2023-07-31T12:49:09;2.38;;;0.70;;
79644;SDS011;69117;47.148;18.954;2023-07-31T12:52:10;0.65;;;0.65;;
79644;SDS011;69117;47.148;18.954;2023-07-31T12:55:12;0.98;;;0.82;;
79644;SDS011;69117;47.148;18.954;2023-07-31T12:58:14;0.93;;;0.93;;
79644;SDS011;69117;47.148;18.954;2023-07-31T13:01:15;0.88;;;0.77;;
79644;SDS011;69117;47.148;18.954;2023-07-31T13:04:17;1.48;;;0.90;;
79644;SDS011;69117;47.148;18.954;2023-07-31T13:07:19;1.13;;;1.13;;
79644;SDS011;69117;47.148;18.954;2023-07-31T13:10:21;0.82;;;0.63;;
79644;SDS011;69117;47.148;18.954;2023-07-31T13:13:24;1.98;;;0.75;;
79644;SDS011;69117;47.148;18.954;2023-07-31T13:16:25;1.40;;;0.70;;
79644;SDS011;69117;47.148;18.954;2023-07-31T13:19:28;0.60;;;0.50;;
79644;SDS011;69117;47.148;18.954;2023-07-31T13:22:30;1.48;;;0.70;;
79644;SDS011;69117;47.148;18.954;2023-07-31T13:25:32;1.48;;;0.85;;
79644;SDS011;69117;47.148;18.954;2023-07-31T13:28:33;0.85;;;0.60;;
79644;SDS011;69117;47.148;18.954;2023-07-31T13:31:35;1.75;;;0.90;;
79644;SDS011;69117;47.148;18.954;2023-07-31T13:34:37;3.17;;;0.75;;
79644;SDS011;69117;47.148;18.954;2023-07-31T13:37:39;1.30;;;0.52;;
79644;SDS011;69117;47.148;18.954;2023-07-31T13:40:41;2.42;;;1.38;;
79644;SDS011;69117;47.148;18.954;2023-07-31T13:43:43;1.25;;;0.45;;
79644;SDS011;69117;47.148;18.954;2023-07-31T13:46:44;1.67;;;1.08;;
79644;SDS011;69117;47.148;18.954;2023-07-31T13:49:46;1.48;;;1.08;;
79644;SDS011;69117;47.148;18.954;2023-07-31T13:52:48;1.75;;;0.60;;
79644;SDS011;69117;47.148;18.954;2023-07-31T13:55:50;0.68;;;0.50;;
79644;SDS011;69117;47.148;18.954;2023-07-31T13:58:51;1.00;;;0.45;;
79644;SDS011;69117;47.148;18.954;2023-07-31T14:01:55;1.10;;;0.47;;
79644;SDS011;69117;47.148;18.954;2023-07-31T14:04:56;1.90;;;0.82;;
79644;SDS011;69117;47.148;18.954;2023-07-31T14:07:58;1.38;;;0.68;;
79644;SDS011;69117;47.148;18.954;2023-07-31T14:11:00;1.35;;;0.82;;
79644;SDS011;69117;47.148;18.954;2023-07-31T14:14:01;1.60;;;0.57;;
79644;SDS011;69117;47.148;18.954;2023-07-31T14:17:04;0.50;;;0.30;;
79644;SDS011;69117;47.148;18.954;2023-07-31T14:20:07;2.35;;;0.50;;
79644;SDS011;69117;47.148;18.954;2023-07-31T14:23:10;1.88;;;0.60;;
79644;SDS011;69117;47.148;18.954;2023-07-31T14:26:11;3.25;;;0.95;;
79644;SDS011;69117;47.148;18.954;2023-07-31T14:29:13;2.35;;;1.10;;
79644;SDS011;69117;47.148;18.954;2023-07-31T14:32:14;0.75;;;0.75;;
79644;SDS011;69117;47.148;18.954;2023-07-31T14:35:16;1.08;;;1.08;;
79644;SDS011;69117;47.148;18.954;2023-07-31T14:38:18;1.13;;;1.02;;
79644;SDS011;69117;47.148;18.954;2023-07-31T14:41:20;1.23;;;1.08;;
79644;SDS011;69117;47.148;18.954;2023-07-31T14:44:22;0.77;;;0.73;;
79644;SDS011;69117;47.148;18.954;2023-07-31T14:47:24;2.25;;;0.57;;
79644;SDS011;69117;47.148;18.954;2023-07-31T14:50:25;1.40;;;1.02;;
79644;SDS011;69117;47.148;18.954;2023-07-31T14:53:27;1.25;;;0.50;;
79644;SDS011;69117;47.148;18.954;2023-07-31T14:56:29;1.35;;;0.80;;
79644;SDS011;69117;47.148;18.954;2023-07-31T14:59:31;3.10;;;0.93;;
79644;SDS011;69117;47.148;18.954;2023-07-31T15:02:36;0.75;;;0.50;;
79644;SDS011;69117;47.148;18.954;2023-07-31T15:05:41;1.42;;;0.50;;
79644;SDS011;69117;47.148;18.954;2023-07-31T15:08:42;3.33;;;0.90;;
79644;SDS011;69117;47.148;18.954;2023-07-31T15:11:44;1.00;;;0.70;;
79644;SDS011;69117;47.148;18.954;2023-07-31T15:14:47;0.95;;;0.52;;
79644;SDS011;69117;47.148;18.954;2023-07-31T15:17:49;1.40;;;1.30;;
79644;SDS011;69117;47.148;18.954;2023-07-31T15:20:51;1.80;;;0.60;;
79644;SDS011;69117;47.148;18.954;2023-07-31T15:23:53;1.30;;;0.85;;
79644;SDS011;69117;47.148;18.954;2023-07-31T15:26:54;2.15;;;0.95;;
79644;SDS011;69117;47.148;18.954;2023-07-31T15:29:56;1.23;;;1.02;;
79644;SDS011;69117;47.148;18.954;2023-07-31T15:32:58;1.40;;;0.90;;
79644;SDS011;69117;47.148;18.954;2023-07-31T15:36:00;1.67;;;1.45;;
79644;SDS011;69117;47.148;18.954;2023-07-31T15:39:02;0.82;;;0.45;;
79644;SDS011;69117;47.148;18.954;2023-07-31T15:42:04;2.97;;;0.93;;
79644;SDS011;69117;47.148;18.954;2023-07-31T15:45:07;2.00;;;1.15;;
79644;SDS011;69117;47.148;18.954;2023-07-31T15:48:09;1.75;;;0.93;;
79644;SDS011;69117;47.148;18.954;2023-07-31T15:51:11;0.90;;;0.70;;
79644;SDS011;69117;47.148;18.954;2023-07-31T15:54:13;3.13;;;0.90;;
79644;SDS011;69117;47.148;18.954;2023-07-31T15:57:15;1.00;;;0.88;;
79644;SDS011;69117;47.148;18.954;2023-07-31T16:00:16;2.15;;;0.85;;
79644;SDS011;69117;47.148;18.954;2023-07-31T16:03:18;1.23;;;1.10;;
79644;SDS011;69117;47.148;18.954;2023-07-31T16:06:22;0.77;;;0.77;;
79644;SDS011;69117;47.148;18.954;2023-07-31T16:09:24;1.33;;;1.00;;
79644;SDS011;69117;47.148;18.954;2023-07-31T16:12:26;1.65;;;0.60;;
79644;SDS011;69117;47.148;18.954;2023-07-31T16:15:27;1.38;;;0.77;;
79644;SDS011;69117;47.148;18.954;2023-07-31T16:18:30;1.05;;;0.95;;
79644;SDS011;69117;47.148;18.954;2023-07-31T16:21:32;1.77;;;1.10;;
79644;SDS011;69117;47.148;18.954;2023-07-31T16:24:33;2.05;;;0.98;;
79644;SDS011;69117;47.148;18.954;2023-07-31T16:27:36;0.63;;;0.60;;
79644;SDS011;69117;47.148;18.954;2023-07-31T16:30:37;0.90;;;0.50;;
79644;SDS011;69117;47.148;18.954;2023-07-31T16:33:39;0.47;;;0.47;;
79644;SDS011;69117;47.148;18.954;2023-07-31T16:36:41;0.85;;;0.38;;
79644;SDS011;69117;47.148;18.954;2023-07-31T16:39:43;1.17;;;0.60;;
79644;SDS011;69117;47.148;18.954;2023-07-31T16:42:47;3.17;;;0.60;;
79644;SDS011;69117;47.148;18.954;2023-07-31T16:45:49;2.28;;;0.52;;
79644;SDS011;69117;47.148;18.954;2023-07-31T16:48:51;0.82;;;0.52;;
79644;SDS011;69117;47.148;18.954;2023-07-31T16:51:53;1.08;;;0.30;;
79644;SDS011;69117;47.148;18.954;2023-07-31T16:54:55;0.75;;;0.38;;
79644;SDS011;69117;47.148;18.954;2023-07-31T16:57:57;2.10;;;0.32;;
79644;SDS011;69117;47.148;18.954;2023-07-31T17:00:58;1.25;;;1.10;;
79644;SDS011;69117;47.148;18.954;2023-07-31T17:04:02;1.98;;;0.40;;
79644;SDS011;69117;47.148;18.954;2023-07-31T17:07:04;1.42;;;0.90;;
79644;SDS011;69117;47.148;18.954;2023-07-31T17:10:06;0.68;;;0.52;;
79644;SDS011;69117;47.148;18.954;2023-07-31T17:13:08;0.93;;;0.60;;
79644;SDS011;69117;47.148;18.954;2023-07-31T17:16:11;1.23;;;0.60;;
79644;SDS011;69117;47.148;18.954;2023-07-31T17:19:12;0.88;;;0.57;;
79644;SDS011;69117;47.148;18.954;2023-07-31T17:22:14;1.25;;;0.40;;
79644;SDS011;69117;47.148;18.954;2023-07-31T17:25:16;1.38;;;0.25;;
79644;SDS011;69117;47.148;18.954;2023-07-31T17:28:20;1.23;;;0.50;;
79644;SDS011;69117;47.148;18.954;2023-07-31T17:31:21;0.95;;;0.63;;
79644;SDS011;69117;47.148;18.954;2023-07-31T17:34:23;2.15;;;1.00;;
79644;SDS011;69117;47.148;18.954;2023-07-31T17:37:25;1.50;;;0.40;;
79644;SDS011;69117;47.148;18.954;2023-07-31T17:40:27;0.93;;;0.40;;
79644;SDS011;69117;47.148;18.954;2023-07-31T17:43:29;1.70;;;0.68;;
79644;SDS011;69117;47.148;18.954;2023-07-31T17:46:30;0.60;;;0.40;;
79644;SDS011;69117;47.148;18.954;2023-07-31T17:49:32;1.67;;;0.95;;
79644;SDS011;69117;47.148;18.954;2023-07-31T17:52:34;2.47;;;0.60;;
79644;SDS011;69117;47.148;18.954;2023-07-31T17:55:35;1.17;;;0.57;;
79644;SDS011;69117;47.148;18.954;2023-07-31T17:58:37;1.55;;;0.63;;
79644;SDS011;69117;47.148;18.954;2023-07-31T18:01:39;1.70;;;1.10;;
79644;SDS011;69117;47.148;18.954;2023-07-31T18:04:40;0.68;;;0.30;;
79644;SDS011;69117;47.148;18.954;2023-07-31T18:07:42;1.00;;;0.40;;
79644;SDS011;69117;47.148;18.954;2023-07-31T18:10:44;3.00;;;0.65;;
79644;SDS011;69117;47.148;18.954;2023-07-31T18:13:49;3.75;;;0.57;;